To NAV CANADA Home Page Login to a new session Search on AWWS site Feedback and Comments Disclaimer Vers la page française équivalente Tips FAQ What's new on the site To the Forecasts and Observations / NOTAM section To "File a Flight Plan" website Publications and other links Update of the User's profile FIC Telephone Numbers My Weather Data Folder Route Weather Data Regional Weather Data Local Weather Data To the Forecasts and Observations / NOTAM section
Request Generated 04/23/2014 at 17:31:13 UTC . Weather information available at that time is displayed.

METAR/TAF

IQALUIT/NU    

METAR CYFB 231700Z 17003KT 30SM IC FEW037 M10/M15 A3026 RMK SC2
SLP250=
METAR CYFB 231600Z 16004KT 20SM IC SCT036 M11/M15 A3025 RMK SC4
SLP247=
METAR CYFB 231500Z 17003KT 20SM IC OVC036 M11/M16 A3024 RMK SC8
SLP245=

TAF CYFB 231141Z 2312/2412 VRB03KT P6SM IC OVC040 TEMPO 2312/2315
P6SM NSW SCT040
FM231500 VRB03KT P6SM FEW040
RMK NXT FCST BY 231800Z=
Your time UTC time
Weather data provided by Environment Canada and NAV CANADA